Time;durP1;ratioP1;P1;durP2;ratioP2;P2;SDS_P1;SDS_P2;PMS_P1;PMS_P2;Temp;Humidity;BMP_temperature;BMP_pressure;BME280_temperature;BME280_humidity;BME280_pressure;Samples;Min_cycle;Max_cycle;Signal;HPM_P1;HPM_P2
2021/10/13 04:16:58;;;;;;;2.22;2.13;;;;;;;6.83;100.00;99366.53;5298764;23;20046;-70
2021/10/13 04:19:24;;;;;;;0.82;0.82;;;;;;;6.92;100.00;99364.00;5012650;28;20033;-71
2021/10/13 04:21:50;;;;;;;0.65;0.65;;;;;;;7.08;100.00;99371.81;5012641;28;20437;-71
2021/10/13 04:24:15;;;;;;;2.47;1.23;;;;;;;7.16;100.00;99372.75;5012843;28;20029;-70
2021/10/13 04:26:40;;;;;;;1.88;1.75;;;;;;;7.13;100.00;99377.88;5011405;28;20025;-71
2021/10/13 04:29:06;;;;;;;0.88;0.88;;;;;;;7.13;100.00;99388.16;5020928;23;20462;-75
2021/10/13 04:31:31;;;;;;;0.68;0.68;;;;;;;6.99;100.00;99394.94;4992320;28;20383;-74
2021/10/13 04:33:56;;;;;;;0.90;0.90;;;;;;;6.83;100.00;99389.72;4931808;28;20442;-74
2021/10/13 04:36:22;;;;;;;0.95;0.95;;;;;;;6.75;100.00;99391.34;4987208;28;20107;-73
2021/10/13 04:38:47;;;;;;;7.88;0.95;;;;;;;6.86;100.00;99394.00;4994297;28;20482;-68
2021/10/13 04:41:12;;;;;;;1.63;1.55;;;;;;;6.88;100.00;99388.03;5008030;28;20175;-69
2021/10/13 04:43:38;;;;;;;0.88;0.88;;;;;;;6.81;100.00;99385.38;5011917;28;20029;-69
2021/10/13 04:46:03;;;;;;;1.15;1.15;;;;;;;6.93;100.00;99386.34;5004917;28;20390;-68
2021/10/13 04:48:28;;;;;;;1.38;1.27;;;;;;;6.96;100.00;99390.63;5003646;28;20353;-70
2021/10/13 04:50:54;;;;;;;1.10;0.90;;;;;;;6.82;100.00;99393.13;5010482;28;20032;-70
2021/10/13 04:53:19;;;;;;;1.50;1.42;;;;;;;6.94;100.00;99392.34;5011798;28;20383;-70
2021/10/13 04:55:44;;;;;;;0.88;0.88;;;;;;;7.16;100.00;99386.47;4995981;28;20419;-70
2021/10/13 04:58:10;;;;;;;1.65;1.55;;;;;;;7.06;100.00;99392.44;5017174;28;20471;-70
2021/10/13 05:00:35;;;;;;;0.95;0.95;;;;;;;7.18;100.00;99401.94;5009553;28;20022;-70
2021/10/13 05:03:00;;;;;;;0.73;0.73;;;;;;;7.17;100.00;99401.09;5011783;28;20037;-70
2021/10/13 05:05:26;;;;;;;0.93;0.93;;;;;;;7.05;100.00;99405.28;5005539;28;20506;-70
2021/10/13 05:07:51;;;;;;;1.30;1.20;;;;;;;6.97;100.00;99394.09;5006221;28;20021;-70
2021/10/13 05:10:16;;;;;;;0.98;0.98;;;;;;;7.11;100.00;99406.22;5011610;28;20061;-70
2021/10/13 05:12:42;;;;;;;1.13;1.13;;;;;;;7.06;100.00;99409.59;5007697;28;20057;-70
2021/10/13 05:15:07;;;;;;;20.73;1.80;;;;;;;6.93;100.00;99404.38;5004594;28;20035;-70
2021/10/13 05:17:33;;;;;;;1.02;0.90;;;;;;;7.01;100.00;99414.75;5011719;28;20013;-70
2021/10/13 05:19:58;;;;;;;1.48;1.42;;;;;;;6.83;100.00;99410.31;5011555;28;20037;-70
2021/10/13 05:22:23;;;;;;;0.85;0.85;;;;;;;6.87;100.00;99422.38;5006730;28;20107;-70
2021/10/13 05:24:49;;;;;;;5.57;4.22;;;;;;;6.72;100.00;99414.53;5000560;28;20018;-70
2021/10/13 05:27:14;;;;;;;0.88;0.88;;;;;;;6.71;100.00;99415.34;5009534;28;20030;-70
2021/10/13 05:29:40;;;;;;;1.02;1.02;;;;;;;6.71;100.00;99415.34;5010117;28;20030;-70
2021/10/13 05:32:06;;;;;;;1.90;1.75;;;;;;;6.70;100.00;99413.63;5013924;28;20068;-71
2021/10/13 05:34:31;;;;;;;0.63;0.63;;;;;;;6.68;100.00;99412.78;5012815;28;20080;-70
2021/10/13 05:36:56;;;;;;;0.82;0.82;;;;;;;6.59;100.00;99420.41;5014534;28;20037;-70
2021/10/13 05:39:22;;;;;;;1.20;1.08;;;;;;;6.69;100.00;99422.22;5013926;28;20034;-70
2021/10/13 05:41:47;;;;;;;0.65;0.65;;;;;;;6.76;100.00;99423.97;5015058;28;20026;-70
2021/10/13 05:44:12;;;;;;;1.35;1.15;;;;;;;6.96;100.00;99421.53;5005416;28;20033;-70
2021/10/13 05:46:37;;;;;;;2.17;1.80;;;;;;;6.89;100.00;99425.81;5014983;28;20049;-70
2021/10/13 05:49:03;;;;;;;2.22;0.88;;;;;;;6.90;100.00;99430.09;5006954;28;20032;-70
2021/10/13 05:51:28;;;;;;;1.92;1.45;;;;;;;6.78;100.00;99430.03;5012804;28;20038;-71
2021/10/13 05:53:54;;;;;;;0.98;0.98;;;;;;;6.72;100.00;99435.13;5012257;28;20506;-70
2021/10/13 05:56:19;;;;;;;1.95;1.85;;;;;;;6.72;100.00;99442.84;5014817;28;20080;-70
2021/10/13 05:58:46;;;;;;;1.35;1.30;;;;;;;6.65;100.00;99441.91;5012444;28;20486;-70
2021/10/13 06:01:17;;;;;;;1.38;1.35;;;;;;;7.09;100.00;99456.00;5014891;28;20034;-70
2021/10/13 06:03:42;;;;;;;0.60;0.60;;;;;;;7.00;100.00;99448.19;5014825;28;20021;-70
2021/10/13 06:06:08;;;;;;;1.35;1.25;;;;;;;6.87;100.00;99458.44;5009333;28;20405;-70
2021/10/13 06:08:33;;;;;;;1.00;1.00;;;;;;;6.93;100.00;99462.75;5014639;28;20029;-70
2021/10/13 06:10:59;;;;;;;2.03;1.63;;;;;;;7.26;100.00;99474.16;5012721;28;20026;-70
2021/10/13 06:13:24;;;;;;;2.05;1.95;;;;;;;7.62;100.00;99473.50;5010701;28;20030;-70
2021/10/13 06:15:51;;;;;;;2.22;2.13;;;;;;;7.70;100.00;99477.84;5009111;28;20105;-70
2021/10/13 06:18:16;;;;;;;1.33;1.33;;;;;;;7.80;99.24;99481.34;5014492;28;20033;-70
2021/10/13 06:20:41;;;;;;;0.85;0.85;;;;;;;7.72;97.81;99493.31;5010914;28;20022;-70
2021/10/13 06:23:07;;;;;;;1.13;1.13;;;;;;;7.78;98.35;99488.19;5014254;28;20478;-70
2021/10/13 06:25:33;;;;;;;4.78;1.63;;;;;;;8.11;98.08;99497.78;5010040;28;20179;-72
2021/10/13 06:27:58;;;;;;;2.08;1.73;;;;;;;8.38;96.23;99497.06;5012549;28;20451;-72
2021/10/13 06:30:23;;;;;;;1.70;1.63;;;;;;;8.55;93.28;99498.78;5010377;28;20434;-72
2021/10/13 06:32:49;;;;;;;1.70;1.60;;;;;;;8.17;93.89;99507.25;5013168;28;20076;-75
2021/10/13 06:35:14;;;;;;;1.48;1.13;;;;;;;7.96;95.67;99508.91;5014177;28;20101;-75
2021/10/13 06:37:40;;;;;;;2.80;2.55;;;;;;;7.93;97.13;99526.13;5013643;28;20022;-75
2021/10/13 06:40:06;;;;;;;1.42;1.42;;;;;;;8.01;97.69;99520.97;5008718;28;20057;-75
2021/10/13 06:42:31;;;;;;;2.35;2.25;;;;;;;8.06;98.08;99520.13;5001487;28;20045;-75
2021/10/13 06:44:56;;;;;;;1.25;1.25;;;;;;;7.96;96.52;99532.13;5009593;28;20093;-75
2021/10/13 06:47:22;;;;;;;2.40;2.17;;;;;;;7.81;96.24;99529.47;5005839;28;20038;-75
2021/10/13 06:49:47;;;;;;;2.30;2.10;;;;;;;7.80;97.15;99535.50;5007093;28;20037;-74
2021/10/13 06:52:12;;;;;;;1.38;1.35;;;;;;;7.70;97.48;99541.47;5013659;28;20433;-75
2021/10/13 06:54:38;;;;;;;1.80;1.70;;;;;;;7.58;97.50;99541.38;5011309;28;20021;-75
2021/10/13 06:57:03;;;;;;;1.65;1.55;;;;;;;7.44;97.60;99546.44;5006584;28;20030;-75
2021/10/13 06:59:28;;;;;;;2.60;2.40;;;;;;;7.46;99.21;99545.63;5007959;28;20064;-75
2021/10/13 07:01:54;;;;;;;2.50;1.60;;;;;;;7.43;99.22;99544.72;5013564;28;20030;-75
2021/10/13 07:04:19;;;;;;;4.90;2.83;;;;;;;7.63;97.74;99542.28;5012584;28;20069;-75
2021/10/13 07:06:44;;;;;;;3.45;2.15;;;;;;;7.78;99.58;99551.81;5012457;28;20029;-75
2021/10/13 07:09:09;;;;;;;1.90;1.80;;;;;;;7.98;96.45;99548.50;5013458;28;20025;-75
2021/10/13 07:11:35;;;;;;;4.50;2.78;;;;;;;8.05;95.67;99551.09;5011363;28;20021;-75
2021/10/13 07:14:03;;;;;;;1.15;1.15;;;;;;;8.06;95.61;99555.41;5013392;28;20029;-75
2021/10/13 07:16:29;;;;;;;0.82;0.82;;;;;;;8.14;94.63;99548.56;5011010;28;20073;-75
2021/10/13 07:18:54;;;;;;;1.55;1.35;;;;;;;8.18;94.06;99550.31;5013207;28;20025;-75
2021/10/13 07:21:19;;;;;;;1.70;1.60;;;;;;;8.37;92.61;99552.13;5008455;28;20422;-75
2021/10/13 07:23:44;;;;;;;1.35;1.35;;;;;;;8.72;91.92;99544.47;5001915;28;20361;-75
2021/10/13 07:26:10;;;;;;;2.85;0.98;;;;;;;8.95;89.29;99543.66;5009275;28;20112;-76
2021/10/13 07:28:39;;;;;;;1.85;1.75;;;;;;;9.01;88.40;99541.91;5013029;28;20378;-75
2021/10/13 07:31:05;;;;;;;1.95;1.85;;;;;;;9.07;89.01;99553.97;5009747;28;20036;-74
2021/10/13 07:33:30;;;;;;;2.03;1.98;;;;;;;9.15;89.79;99546.25;5012433;28;20550;-74
2021/10/13 07:35:56;;;;;;;1.55;1.35;;;;;;;9.13;86.87;99545.34;5011039;28;20026;-73
2021/10/13 07:38:21;;;;;;;1.27;1.15;;;;;;;9.14;86.91;99547.09;5007144;28;20056;-73
2021/10/13 07:40:48;;;;;;;1.75;1.58;;;;;;;9.50;84.56;99549.66;5011176;28;20109;-74
2021/10/13 07:43:14;;;;;;;1.05;1.05;;;;;;;9.87;84.47;99549.59;5000880;28;20084;-73
2021/10/13 07:45:41;;;;;;;1.00;0.90;;;;;;;10.36;81.31;99546.84;5010595;28;20034;-73
2021/10/13 07:48:06;;;;;;;1.67;1.52;;;;;;;10.79;77.77;99551.81;5002912;28;20029;-73
2021/10/13 07:50:31;;;;;;;0.80;0.80;;;;;;;10.68;78.06;99553.56;5009033;28;20103;-73
2021/10/13 07:52:57;;;;;;;0.82;0.82;;;;;;;10.09;81.33;99562.47;5012371;28;20049;-74
2021/10/13 07:55:22;;;;;;;1.10;1.10;;;;;;;10.28;79.93;99561.56;5009954;28;20029;-73
2021/10/13 07:57:48;;;;;;;6.45;4.50;;;;;;;9.99;80.62;99572.84;5011356;28;20021;-74
2021/10/13 08:00:16;;;;;;;4.25;1.58;;;;;;;9.87;82.83;99579.81;5011077;28;20049;-73
2021/10/13 08:02:44;;;;;;;0.95;0.95;;;;;;;9.76;84.23;99574.63;5012392;28;20044;-74
2021/10/13 08:05:10;;;;;;;1.57;1.47;;;;;;;9.73;84.71;99579.81;5007213;28;20030;-74
2021/10/13 08:07:35;;;;;;;1.15;1.08;;;;;;;9.42;84.78;99574.66;5011299;28;20394;-74
2021/10/13 08:10:00;;;;;;;0.70;0.70;;;;;;;9.15;84.09;99575.53;5006775;28;20149;-74
2021/10/13 08:12:26;;;;;;;0.70;0.70;;;;;;;10.58;80.03;99575.22;5012104;28;20041;-74
2021/10/13 08:14:51;;;;;;;1.65;1.55;;;;;;;12.65;72.78;99574.19;5007522;28;20022;-74
2021/10/13 08:17:16;;;;;;;1.65;1.05;;;;;;;15.03;60.46;99559.41;5012200;28;20386;-74
2021/10/13 08:19:42;;;;;;;0.45;0.45;;;;;;;16.58;55.87;99569.25;5008024;28;20029;-74
2021/10/13 08:22:07;;;;;;;1.20;1.20;;;;;;;16.95;53.61;99573.41;5007971;28;20034;-74
2021/10/13 08:24:34;;;;;;;1.67;1.58;;;;;;;15.55;56.22;99583.41;5008533;28;20475;-74
2021/10/13 08:26:59;;;;;;;0.88;0.88;;;;;;;14.41;60.72;99590.34;5005709;28;20022;-74
2021/10/13 08:29:25;;;;;;;0.60;0.60;;;;;;;12.70;66.06;99606.19;5008243;28;21378;-74
2021/10/13 08:31:50;;;;;;;1.75;1.27;;;;;;;12.23;68.50;99607.63;5009818;28;20096;-74
2021/10/13 08:34:16;;;;;;;1.00;0.90;;;;;;;11.40;70.21;99608.41;5007326;28;20030;-75
2021/10/13 08:36:41;;;;;;;1.80;1.70;;;;;;;10.86;73.40;99613.09;5011024;28;20018;-75
2021/10/13 08:39:06;;;;;;;1.88;1.27;;;;;;;10.22;76.32;99615.94;5011539;28;20506;-74
2021/10/13 08:41:32;;;;;;;1.13;1.13;;;;;;;10.16;78.38;99610.78;5007188;28;20475;-74
2021/10/13 08:43:57;;;;;;;0.43;0.43;;;;;;;10.48;76.44;99608.97;5002747;28;20020;-74
2021/10/13 08:46:23;;;;;;;1.15;1.15;;;;;;;10.83;77.11;99605.34;5010426;28;20018;-74
2021/10/13 08:48:48;;;;;;;1.90;1.80;;;;;;;10.88;74.37;99595.81;5009482;28;20467;-74
2021/10/13 08:51:14;;;;;;;0.88;0.88;;;;;;;10.64;76.56;99607.19;5010881;28;20026;-75
2021/10/13 08:53:39;;;;;;;0.63;0.63;;;;;;;11.68;72.10;99597.78;5007063;28;20525;-75
2021/10/13 08:56:04;;;;;;;2.38;1.52;;;;;;;11.78;70.94;99594.22;5011641;28;20116;-74
2021/10/13 08:58:37;;;;;;;0.55;0.55;;;;;;;11.72;70.90;99594.28;5010510;28;20118;-74
2021/10/13 09:01:07;;;;;;;0.70;0.70;;;;;;;11.09;71.96;99591.34;4998776;28;20026;-74
2021/10/13 09:03:44;;;;;;;0.95;0.93;;;;;;;10.58;74.58;99604.59;5009310;28;20028;-74
2021/10/13 09:06:17;;;;;;;0.75;0.75;;;;;;;10.37;78.75;99617.66;5006854;28;20439;-74
2021/10/13 09:09:12;;;;;;;1.48;1.05;;;;;;;10.66;76.87;99608.03;5010218;28;20013;-74
2021/10/13 09:11:48;;;;;;;0.85;0.85;;;;;;;10.32;76.64;99607.31;4994510;28;20398;-74
2021/10/13 09:14:31;;;;;;;0.47;0.47;;;;;;;10.18;77.89;99614.22;5006340;28;20040;-75
2021/10/13 09:17:01;;;;;;;3.30;2.22;;;;;;;10.47;78.47;99607.25;5009767;28;20112;-74
2021/10/13 09:19:38;;;;;;;1.55;1.40;;;;;;;10.59;76.32;99613.22;5008428;28;20022;-74
2021/10/13 09:22:10;;;;;;;0.93;0.93;;;;;;;10.33;79.09;99614.19;5004154;28;20390;-74
2021/10/13 09:24:50;;;;;;;3.22;2.13;;;;;;;10.64;78.66;99619.28;4998085;28;20030;-75
2021/10/13 09:27:31;;;;;;;1.13;1.13;;;;;;;10.10;82.68;99621.13;5009979;28;20072;-74
2021/10/13 09:29:59;;;;;;;0.57;0.57;;;;;;;10.14;82.15;99622.88;5006380;28;20021;-74
2021/10/13 09:32:27;;;;;;;1.50;1.40;;;;;;;10.07;82.27;99624.63;5009637;28;20029;-74
2021/10/13 09:34:59;;;;;;;1.13;1.13;;;;;;;9.78;82.04;99629.84;5011469;28;20023;-74
2021/10/13 09:37:43;;;;;;;0.80;0.80;;;;;;;9.82;82.43;99626.41;5011327;28;20048;-76
2021/10/13 09:40:09;;;;;;;0.75;0.75;;;;;;;9.79;85.22;99634.16;5008451;28;20030;-76
2021/10/13 09:42:40;;;;;;;0.77;0.77;;;;;;;9.75;81.11;99629.84;5001957;28;20368;-76
2021/10/13 09:45:09;;;;;;;1.02;1.02;;;;;;;9.87;82.24;99635.00;5008107;28;20387;-73
2021/10/13 09:47:36;;;;;;;0.77;0.77;;;;;;;10.41;79.91;99617.63;5006559;28;20245;-71
2021/10/13 09:50:13;;;;;;;1.80;1.67;;;;;;;12.82;70.35;99608.66;5009152;28;20029;-73
2021/10/13 09:52:39;;;;;;;3.13;1.92;;;;;;;17.44;55.68;99593.63;5025903;28;20022;-76
2021/10/13 09:55:10;;;;;;;0.82;0.82;;;;;;;18.43;49.76;99601.63;5009875;28;20032;-77
2021/10/13 09:57:49;;;;;;;0.70;0.70;;;;;;;20.59;44.54;99590.97;5003313;28;20031;-77
2021/10/13 10:00:25;;;;;;;1.20;1.00;;;;;;;20.85;42.77;99591.56;5005421;28;20030;-75
2021/10/13 10:02:54;;;;;;;0.93;0.90;;;;;;;20.37;45.92;99598.13;5007241;28;20053;-78
2021/10/13 10:05:22;;;;;;;0.68;0.68;;;;;;;20.39;45.00;99598.91;5010841;28;20072;-77
2021/10/13 10:08:05;;;;;;;0.90;0.85;;;;;;;22.58;39.48;99596.94;5008581;28;20036;-77
2021/10/13 10:10:33;;;;;;;0.98;0.93;;;;;;;20.48;43.49;99603.78;5005225;28;20026;-77
2021/10/13 10:13:00;;;;;;;0.55;0.45;;;;;;;21.78;39.73;99595.78;5009603;28;20033;-76
2021/10/13 10:15:29;;;;;;;0.50;0.50;;;;;;;17.12;50.24;99612.16;5007795;28;20533;-77
2021/10/13 10:17:55;;;;;;;2.15;1.33;;;;;;;17.55;45.89;99603.78;5009676;28;20474;-76
2021/10/13 10:20:38;;;;;;;0.43;0.43;;;;;;;15.84;55.58;99608.81;5007508;28;20375;-76
2021/10/13 10:23:34;;;;;;;0.60;0.60;;;;;;;15.23;56.96;99597.22;5010749;28;20025;-76
2021/10/13 10:26:24;;;;;;;0.57;0.57;;;;;;;13.84;62.67;99619.22;5002649;28;20034;-76
2021/10/13 10:28:51;;;;;;;1.30;1.20;;;;;;;13.94;62.95;99610.34;5010416;28;20029;-73
2021/10/13 10:31:28;;;;;;;0.45;0.45;;;;;;;13.38;65.99;99609.56;5009171;28;20030;-73
2021/10/13 10:34:02;;;;;;;0.63;0.63;;;;;;;13.47;62.74;99604.22;5007805;28;20026;-71
2021/10/13 10:36:29;;;;;;;4.70;1.10;;;;;;;13.54;62.15;99600.63;5013609;28;20518;-71
2021/10/13 10:38:54;;;;;;;0.70;0.70;;;;;;;13.06;61.18;99608.28;5014081;28;20044;-71
2021/10/13 10:41:19;;;;;;;0.85;0.60;;;;;;;12.96;65.55;99605.81;5012203;28;20116;-71
2021/10/13 10:43:45;;;;;;;0.80;0.80;;;;;;;11.96;67.12;99614.84;5007443;28;20064;-71
2021/10/13 10:46:10;;;;;;;0.52;0.52;;;;;;;12.27;66.68;99617.13;5013121;28;20034;-71
2021/10/13 10:48:47;;;;;;;1.30;1.20;;;;;;;12.92;64.46;99605.03;5005531;28;20018;-71
2021/10/13 10:51:14;;;;;;;1.48;1.38;;;;;;;12.45;65.71;99614.31;5013677;28;20042;-71
2021/10/13 10:53:44;;;;;;;0.57;0.57;;;;;;;12.13;69.37;99617.25;5013030;28;20101;-74
2021/10/13 10:56:10;;;;;;;1.33;0.98;;;;;;;12.02;70.50;99614.78;5010094;28;20037;-75
2021/10/13 10:58:36;;;;;;;2.47;2.00;;;;;;;12.55;69.29;99605.50;5013585;28;20026;-74
2021/10/13 11:01:12;;;;;;;1.95;1.85;;;;;;;14.94;58.32;99596.19;5003548;28;20021;-74
2021/10/13 11:03:40;;;;;;;1.05;1.05;;;;;;;17.46;53.45;99586.59;5012741;28;20018;-74
2021/10/13 11:06:19;;;;;;;3.33;1.38;;;;;;;18.52;46.37;99596.03;5009910;28;20022;-74
2021/10/13 11:08:55;;;;;;;0.95;0.95;;;;;;;18.78;44.95;99600.31;5013444;28;20064;-74
2021/10/13 11:11:21;;;;;;;1.17;1.10;;;;;;;17.21;50.14;99598.75;5011685;28;20026;-75
2021/10/13 11:14:07;;;;;;;1.00;0.88;;;;;;;17.15;48.92;99596.34;5008734;28;20026;-75
2021/10/13 11:16:35;;;;;;;2.45;1.00;;;;;;;19.20;46.86;99589.06;5009641;28;20069;-74
2021/10/13 11:19:31;;;;;;;1.17;0.75;;;;;;;20.78;41.02;99586.56;5008452;28;20022;-74
2021/10/13 11:22:03;;;;;;;0.40;0.40;;;;;;;19.24;42.92;99595.88;5004147;28;20506;-71
2021/10/13 11:24:29;;;;;;;1.25;0.77;;;;;;;16.59;49.73;99602.38;5010586;28;20026;-71
2021/10/13 11:26:55;;;;;;;0.68;0.68;;;;;;;15.59;53.70;99609.41;5012620;28;20014;-71
2021/10/13 11:29:24;;;;;;;0.95;0.95;;;;;;;13.86;59.42;99613.09;5009453;28;20497;-71
2021/10/13 11:32:00;;;;;;;0.65;0.65;;;;;;;12.98;62.40;99612.75;5001153;28;20026;-71
2021/10/13 11:34:26;;;;;;;0.77;0.77;;;;;;;12.84;59.63;99618.13;5009626;28;20076;-73
2021/10/13 11:36:54;;;;;;;2.67;0.95;;;;;;;12.82;61.05;99617.31;5013149;28;20108;-73
2021/10/13 11:39:27;;;;;;;1.13;0.50;;;;;;;13.87;57.98;99609.59;5012676;28;20041;-73
2021/10/13 11:41:53;;;;;;;0.80;0.80;;;;;;;15.52;56.39;99593.91;5008193;28;20025;-73
2021/10/13 11:44:23;;;;;;;1.95;1.15;;;;;;;16.93;51.02;99596.16;5007320;28;20593;-73
2021/10/13 11:46:56;;;;;;;0.45;0.45;;;;;;;15.36;55.90;99609.13;5004278;28;20460;-76
2021/10/13 11:49:21;;;;;;;1.98;0.65;;;;;;;14.44;55.83;99605.91;5012648;28;20493;-76
2021/10/13 11:52:10;;;;;;;0.45;0.45;;;;;;;14.63;56.94;99609.88;5012711;28;20018;-75
2021/10/13 11:54:36;;;;;;;0.90;0.90;;;;;;;15.21;54.08;99599.03;5012190;28;20029;-75
2021/10/13 11:57:01;;;;;;;0.43;0.43;;;;;;;14.63;54.38;99611.63;5008355;28;20029;-76
2021/10/13 11:59:26;;;;;;;0.38;0.35;;;;;;;13.41;59.81;99614.72;5009396;28;20026;-74
2021/10/13 12:01:52;;;;;;;0.43;0.43;;;;;;;13.60;60.12;99610.94;5005081;28;20025;-73
2021/10/13 12:04:18;;;;;;;0.35;0.35;;;;;;;13.00;63.45;99613.56;5012471;28;20024;-74
2021/10/13 12:06:44;;;;;;;0.85;0.85;;;;;;;13.22;60.38;99608.09;5012494;28;20528;-74
2021/10/13 12:09:09;;;;;;;0.45;0.45;;;;;;;12.86;60.59;99605.09;5007849;28;20022;-75
2021/10/13 12:11:38;;;;;;;0.35;0.35;;;;;;;12.23;61.46;99607.63;5012453;28;20075;-75
2021/10/13 12:14:12;;;;;;;0.35;0.35;;;;;;;12.30;65.06;99604.09;5000681;28;20025;-74
2021/10/13 12:16:38;;;;;;;3.55;0.80;;;;;;;12.26;64.33;99602.41;5010405;28;20211;-74
2021/10/13 12:19:14;;;;;;;0.30;0.30;;;;;;;12.86;60.57;99597.28;5012147;28;20026;-74
2021/10/13 12:22:01;;;;;;;0.45;0.45;;;;;;;12.92;63.31;99592.03;5010552;28;20427;-74
2021/10/13 12:24:27;;;;;;;0.30;0.30;;;;;;;12.89;61.98;99594.66;5007180;28;20491;-73
2021/10/13 12:26:52;;;;;;;0.50;0.50;;;;;;;12.81;61.07;99599.09;5006156;28;20117;-72
2021/10/13 12:29:18;;;;;;;1.05;0.73;;;;;;;13.25;60.15;99582.03;5009928;28;20403;-74
2021/10/13 12:31:44;;;;;;;0.20;0.20;;;;;;;13.43;59.59;99583.47;5006573;28;20018;-73
2021/10/13 12:34:19;;;;;;;0.80;0.52;;;;;;;13.00;58.62;99587.56;5011698;28;20100;-73
2021/10/13 12:36:57;;;;;;;0.77;0.77;;;;;;;13.48;58.13;99579.88;5001047;28;20539;-76
2021/10/13 12:39:31;;;;;;;0.20;0.20;;;;;;;13.43;59.68;99578.25;5004336;28;20038;-77
2021/10/13 12:42:12;;;;;;;0.50;0.50;;;;;;;12.37;62.34;99579.75;5011956;28;20399;-76
2021/10/13 12:44:38;;;;;;;0.77;0.77;;;;;;;12.41;64.32;99576.22;5009278;28;20022;-76
2021/10/13 12:47:17;;;;;;;0.55;0.55;;;;;;;12.16;64.97;99585.22;5011854;28;20026;-76
2021/10/13 12:49:50;;;;;;;0.40;0.40;;;;;;;11.53;67.32;99591.84;5010228;28;20470;-76
2021/10/13 12:52:22;;;;;;;0.32;0.32;;;;;;;11.49;69.05;99587.56;5011539;28;20033;-76
2021/10/13 12:54:50;;;;;;;0.30;0.30;;;;;;;11.67;68.97;99594.34;5007702;28;20029;-76
2021/10/13 12:57:18;;;;;;;0.50;0.50;;;;;;;11.45;69.02;99601.44;5009188;28;20022;-76
2021/10/13 12:59:45;;;;;;;0.30;0.30;;;;;;;11.27;65.81;99607.66;5006851;28;20030;-76
2021/10/13 13:02:10;;;;;;;0.32;0.32;;;;;;;11.38;63.92;99598.91;5005946;28;20038;-76
2021/10/13 13:04:36;;;;;;;0.30;0.30;;;;;;;11.36;65.74;99598.91;4999546;28;20068;-77
2021/10/13 13:07:06;;;;;;;0.35;0.35;;;;;;;11.68;67.39;99592.59;5008644;28;20479;-76
2021/10/13 13:09:31;;;;;;;0.30;0.30;;;;;;;11.92;64.65;99594.13;5005355;28;20468;-76
2021/10/13 13:11:57;;;;;;;0.40;0.40;;;;;;;12.21;63.76;99591.22;5011381;28;20101;-76
2021/10/13 13:14:22;;;;;;;0.20;0.20;;;;;;;12.78;60.78;99592.22;5004977;28;20056;-76
2021/10/13 13:16:48;;;;;;;0.20;0.20;;;;;;;13.12;63.37;99579.56;5010589;28;20026;-77
2021/10/13 13:19:14;;;;;;;1.30;0.73;;;;;;;13.10;59.65;99588.28;5011249;28;20431;-76
2021/10/13 13:21:40;;;;;;;0.40;0.40;;;;;;;12.89;60.93;99594.66;5005783;28;20022;-77
2021/10/13 13:24:05;;;;;;;0.20;0.20;;;;;;;12.37;67.19;99603.13;5009765;28;20071;-77
2021/10/13 13:26:32;;;;;;;0.22;0.22;;;;;;;11.98;65.16;99597.50;5009619;28;20472;-76
2021/10/13 13:28:58;;;;;;;0.22;0.22;;;;;;;11.49;72.04;99603.13;5011096;28;20101;-75
2021/10/13 13:31:23;;;;;;;0.65;0.60;;;;;;;11.21;73.58;99612.00;5007316;28;20101;-74
2021/10/13 13:33:49;;;;;;;0.68;0.47;;;;;;;11.10;76.24;99608.63;5006267;28;20079;-75
2021/10/13 13:36:16;;;;;;;0.50;0.50;;;;;;;10.70;77.28;99611.47;5010236;28;20057;-75
2021/10/13 13:38:42;;;;;;;0.70;0.70;;;;;;;10.74;77.47;99619.22;4983432;28;20034;-74
2021/10/13 13:41:07;;;;;;;1.55;1.08;;;;;;;10.80;78.00;99613.13;5010505;28;20402;-73
2021/10/13 13:43:33;;;;;;;0.50;0.50;;;;;;;10.53;79.27;99617.56;5008601;28;20540;-71
2021/10/13 13:45:59;;;;;;;0.52;0.52;;;;;;;10.70;77.96;99608.88;5010632;28;20025;-71
2021/10/13 13:48:25;;;;;;;0.63;0.60;;;;;;;10.27;77.98;99620.28;5006837;28;20022;-71
2021/10/13 13:50:50;;;;;;;0.38;0.38;;;;;;;10.59;78.61;99616.72;5011515;28;20082;-71
2021/10/13 13:53:16;;;;;;;0.55;0.55;;;;;;;9.74;78.70;99612.59;5010441;28;20479;-72
2021/10/13 13:55:42;;;;;;;1.17;0.60;;;;;;;10.33;80.72;99616.78;5002263;28;20487;-69
2021/10/13 13:58:09;;;;;;;0.73;0.73;;;;;;;10.31;77.16;99621.13;5013488;28;20536;-74
2021/10/13 14:00:34;;;;;;;0.30;0.30;;;;;;;10.61;78.25;99612.38;5007010;28;20054;-74
2021/10/13 14:02:59;;;;;;;1.10;1.10;;;;;;;10.74;79.57;99618.38;5012850;28;20100;-75
2021/10/13 14:05:25;;;;;;;0.40;0.40;;;;;;;11.05;76.13;99617.31;5002439;28;20061;-75
2021/10/13 14:07:50;;;;;;;0.45;0.45;;;;;;;11.19;72.29;99608.56;5008827;28;20022;-75
2021/10/13 14:10:16;;;;;;;0.40;0.40;;;;;;;11.20;73.92;99618.06;5009946;28;20033;-74
2021/10/13 14:12:43;;;;;;;0.70;0.68;;;;;;;11.17;72.41;99610.28;5009417;28;20594;-75
2021/10/13 14:15:09;;;;;;;1.35;1.25;;;;;;;11.01;71.95;99618.19;5006906;28;20026;-74
2021/10/13 14:17:34;;;;;;;0.60;0.60;;;;;;;10.25;75.07;99621.13;5014325;28;20034;-69
2021/10/13 14:20:00;;;;;;;0.45;0.45;;;;;;;10.51;77.89;99623.66;5014752;28;20021;-69
2021/10/13 14:22:27;;;;;;;0.40;0.40;;;;;;;10.44;74.58;99622.81;5013217;28;20112;-69
2021/10/13 14:24:52;;;;;;;0.52;0.52;;;;;;;10.16;75.83;99618.56;5013248;28;20021;-69
2021/10/13 14:27:17;;;;;;;0.68;0.68;;;;;;;10.23;75.33;99623.69;5014222;28;20483;-74
2021/10/13 14:29:43;;;;;;;0.47;0.47;;;;;;;10.18;77.48;99624.59;5010284;28;20064;-74
2021/10/13 14:32:08;;;;;;;0.63;0.63;;;;;;;10.33;78.04;99634.06;5003430;28;20026;-74
2021/10/13 14:34:34;;;;;;;0.40;0.40;;;;;;;10.64;74.24;99624.47;5011392;28;20021;-74
2021/10/13 14:36:59;;;;;;;0.82;0.82;;;;;;;10.86;72.21;99626.06;5010027;28;20029;-74
2021/10/13 14:39:25;;;;;;;0.70;0.70;;;;;;;10.40;72.20;99626.28;5012344;28;20120;-69
2021/10/13 14:41:50;;;;;;;0.45;0.45;;;;;;;10.63;71.93;99627.91;5013796;28;20018;-71
2021/10/13 14:44:16;;;;;;;0.50;0.40;;;;;;;10.41;71.35;99620.22;5009799;28;20030;-69
2021/10/13 14:46:42;;;;;;;0.32;0.32;;;;;;;10.53;72.75;99627.94;5013740;28;20474;-69
2021/10/13 14:49:08;;;;;;;0.70;0.70;;;;;;;10.26;71.96;99638.41;5013760;28;20478;-69
2021/10/13 14:51:34;;;;;;;0.40;0.40;;;;;;;10.38;71.76;99633.19;5013417;28;20029;-69
2021/10/13 14:54:01;;;;;;;0.68;0.68;;;;;;;10.27;73.26;99635.81;5007533;28;20026;-69
2021/10/13 14:56:26;;;;;;;0.57;0.57;;;;;;;10.29;72.63;99639.25;5013281;28;20022;-69
2021/10/13 14:58:52;;;;;;;0.35;0.35;;;;;;;10.12;71.57;99640.16;5013298;28;20026;-74
2021/10/13 15:01:17;;;;;;;0.68;0.68;;;;;;;10.25;74.21;99641.84;5007134;28;20471;-74
2021/10/13 15:03:42;;;;;;;0.60;0.60;;;;;;;10.35;71.25;99642.69;5002084;28;20475;-74
2021/10/13 15:06:08;;;;;;;0.30;0.30;;;;;;;10.39;70.84;99640.06;5011462;28;20022;-74
2021/10/13 15:08:35;;;;;;;0.60;0.60;;;;;;;10.79;70.76;99637.34;5009551;28;20018;-72
2021/10/13 15:11:00;;;;;;;0.40;0.40;;;;;;;10.77;70.00;99641.66;5013011;28;20379;-71
2021/10/13 15:13:26;;;;;;;0.55;0.55;;;;;;;10.60;68.11;99635.72;5010464;28;20023;-71
2021/10/13 15:15:52;;;;;;;0.50;0.50;;;;;;;11.09;68.13;99638.03;5010156;28;20426;-75
2021/10/13 15:18:17;;;;;;;0.43;0.43;;;;;;;11.18;68.96;99644.03;5013194;28;20030;-75
2021/10/13 15:20:44;;;;;;;0.90;0.75;;;;;;;11.04;65.67;99641.50;5011476;28;20443;-74
2021/10/13 15:23:10;;;;;;;0.65;0.65;;;;;;;11.47;65.98;99636.03;5011873;28;20021;-74
2021/10/13 15:25:36;;;;;;;0.88;0.88;;;;;;;11.69;66.72;99641.03;5011796;28;20471;-74
2021/10/13 15:28:02;;;;;;;0.40;0.40;;;;;;;11.87;64.75;99635.72;5013441;28;20080;-74
2021/10/13 15:30:28;;;;;;;2.13;1.10;;;;;;;11.90;66.53;99638.31;5009005;28;20022;-75
2021/10/13 15:32:55;;;;;;;0.30;0.30;;;;;;;12.11;66.77;99644.16;5003462;28;20030;-69
2021/10/13 15:35:21;;;;;;;0.70;0.70;;;;;;;11.79;65.75;99645.28;5012822;28;20448;-70
2021/10/13 15:37:47;;;;;;;0.65;0.65;;;;;;;11.65;64.78;99645.38;5009305;28;20503;-69
2021/10/13 15:40:12;;;;;;;0.30;0.30;;;;;;;11.39;65.39;99648.19;5012736;28;20062;-69
2021/10/13 15:42:37;;;;;;;0.20;0.20;;;;;;;10.72;64.96;99651.19;5010884;28;20049;-69
2021/10/13 15:45:05;;;;;;;1.00;0.60;;;;;;;10.60;67.22;99659.03;5013068;28;20025;-69
2021/10/13 15:47:32;;;;;;;1.23;1.23;;;;;;;10.77;67.07;99652.03;5010139;28;20076;-70
2021/10/13 15:49:57;;;;;;;0.55;0.55;;;;;;;10.69;69.33;99659.84;5012719;28;20433;-69
2021/10/13 15:52:23;;;;;;;0.38;0.38;;;;;;;10.75;66.28;99657.22;5009567;28;20022;-69